Time;durP1;ratioP1;P1;durP2;ratioP2;P2;SDS_P1;SDS_P2;PMS_P1;PMS_P2;Temp;Humidity;BMP_temperature;BMP_pressure;BME280_temperature;BME280_humidity;BME280_pressure;Samples;Min_cycle;Max_cycle;Signal;HPM_P1;HPM_P2
2022/12/16 00:01:52;;;;;;;11.70;6.15;;;;;;;-6.55;81.90;100348.16;10652227;27;20035;-75
2022/12/16 00:06:54;;;;;;;9.60;6.43;;;;;;;-6.56;81.50;100343.81;10622210;27;20051;-74
2022/12/16 00:11:56;;;;;;;11.68;7.15;;;;;;;-6.59;81.96;100346.03;10625575;27;20051;-76
2022/12/16 00:16:58;;;;;;;11.07;6.43;;;;;;;-6.53;81.37;100340.78;10630958;27;20054;-76
2022/12/16 00:22:00;;;;;;;12.80;6.68;;;;;;;-6.51;82.01;100338.78;10609881;27;20051;-76
2022/12/16 00:27:02;;;;;;;10.48;6.28;;;;;;;-6.43;81.36;100349.38;10616569;27;20035;-76
2022/12/16 00:32:05;;;;;;;12.05;7.13;;;;;;;-6.45;81.33;100354.06;10621733;27;20065;-77
2022/12/16 00:37:07;;;;;;;11.00;6.22;;;;;;;-6.33;81.43;100353.66;10596188;28;20421;-76
2022/12/16 00:42:09;;;;;;;15.95;7.03;;;;;;;-6.55;80.90;100358.00;10619756;27;20055;-76
2022/12/16 00:47:11;;;;;;;14.52;7.25;;;;;;;-6.54;81.35;100365.81;10643707;27;20448;-77
2022/12/16 00:52:14;;;;;;;13.82;6.60;;;;;;;-6.51;82.05;100375.31;10607765;27;20052;-77
2022/12/16 00:57:16;;;;;;;13.85;7.57;;;;;;;-6.62;81.43;100376.53;10623882;27;20042;-76
2022/12/16 01:02:18;;;;;;;14.23;7.35;;;;;;;-6.53;82.21;100378.16;10633356;27;20048;-76
2022/12/16 01:07:20;;;;;;;13.15;7.22;;;;;;;-6.67;81.72;100365.56;10597136;28;20040;-78
2022/12/16 01:12:22;;;;;;;13.73;7.07;;;;;;;-6.68;82.18;100378.06;10622811;27;20412;-78
2022/12/16 01:17:25;;;;;;;12.15;6.93;;;;;;;-6.80;82.43;100373.31;10626780;27;20051;-76
2022/12/16 01:22:29;;;;;;;12.18;6.57;;;;;;;-6.75;82.64;100379.78;10584143;28;20036;-77
2022/12/16 01:27:32;;;;;;;13.98;7.00;;;;;;;-6.48;82.40;100382.94;10614824;28;20039;-76
2022/12/16 01:32:34;;;;;;;14.43;7.13;;;;;;;-6.58;82.44;100385.88;10599172;28;20071;-76
2022/12/16 01:37:36;;;;;;;12.85;6.85;;;;;;;-6.51;82.21;100388.66;10608072;28;20043;-76
2022/12/16 01:42:38;;;;;;;12.90;6.70;;;;;;;-6.54;82.23;100381.84;10613634;27;20494;-76
2022/12/16 01:47:40;;;;;;;12.25;6.65;;;;;;;-6.46;82.47;100379.09;10618080;27;20043;-76
2022/12/16 01:52:46;;;;;;;12.85;7.10;;;;;;;-6.40;82.16;100385.59;10597667;27;20055;-77
2022/12/16 01:57:52;;;;;;;14.75;6.65;;;;;;;-6.31;81.58;100386.34;10603859;28;20039;-77
2022/12/16 02:02:56;;;;;;;14.82;7.65;;;;;;;-6.54;81.41;100384.50;10593929;28;20051;-77
2022/12/16 02:08:06;;;;;;;12.23;6.57;;;;;;;-6.62;81.96;100384.53;10633468;27;20031;-77
2022/12/16 02:13:11;;;;;;;12.65;7.13;;;;;;;-6.58;81.88;100391.19;10621727;27;20042;-77
2022/12/16 02:18:36;;;;;;;12.50;6.78;;;;;;;-6.61;82.18;100396.03;10626523;27;20035;-77
2022/12/16 02:24:09;;;;;;;18.63;7.85;;;;;;;-6.70;82.04;100401.44;10577622;28;20063;-75
2022/12/16 02:29:23;;;;;;;13.30;7.88;;;;;;;-6.57;82.66;100402.72;10619523;27;20038;-75
2022/12/16 02:34:33;;;;;;;14.13;7.10;;;;;;;-6.49;81.97;100408.81;10596464;27;20047;-77
2022/12/16 02:40:05;;;;;;;15.43;7.07;;;;;;;-6.47;82.23;100417.47;10581029;28;20527;-75
2022/12/16 02:45:12;;;;;;;13.77;7.32;;;;;;;-6.49;82.32;100424.81;10601867;27;20088;-77
2022/12/16 02:50:19;;;;;;;13.55;7.35;;;;;;;-6.31;82.76;100424.56;10636700;27;20047;-77
2022/12/16 02:55:27;;;;;;;13.55;7.25;;;;;;;-6.33;82.58;100431.06;10600950;28;20044;-77
2022/12/16 03:00:39;;;;;;;12.85;7.32;;;;;;;-6.37;82.74;100433.28;10594494;28;20058;-76
2022/12/16 03:05:47;;;;;;;15.00;7.03;;;;;;;-6.23;82.74;100434.38;10607022;27;20042;-77
2022/12/16 03:10:56;;;;;;;14.07;8.68;;;;;;;-6.39;82.57;100451.31;10625244;28;20410;-77
2022/12/16 03:16:00;;;;;;;13.68;7.15;;;;;;;-6.28;82.59;100452.72;10641103;27;20047;-77
2022/12/16 03:21:08;;;;;;;14.88;7.25;;;;;;;-6.25;82.35;100461.22;10626019;27;20493;-76
2022/12/16 03:26:36;;;;;;;16.07;7.30;;;;;;;-6.45;82.29;100468.00;10655306;27;20036;-76
2022/12/16 03:31:47;;;;;;;14.03;7.97;;;;;;;-6.55;82.12;100473.59;10624638;27;20043;-78
2022/12/16 03:37:02;;;;;;;17.92;7.97;;;;;;;-6.57;82.67;100486.28;10620156;27;20071;-77
2022/12/16 03:42:05;;;;;;;14.38;7.55;;;;;;;-6.45;82.96;100490.19;10636038;27;20054;-76
2022/12/16 03:47:07;;;;;;;15.98;6.20;;;;;;;-6.30;82.62;100492.13;10639034;27;20065;-76
2022/12/16 03:52:09;;;;;;;15.68;6.97;;;;;;;-6.20;82.09;100490.91;10614414;27;20048;-75
2022/12/16 03:57:12;;;;;;;14.10;6.72;;;;;;;-6.41;82.16;100499.53;10613622;28;20047;-77
2022/12/16 04:02:18;;;;;;;13.15;6.88;;;;;;;-6.44;83.09;100505.19;10624406;28;20391;-76
2022/12/16 04:07:24;;;;;;;10.38;6.25;;;;;;;-6.38;82.28;100517.88;10615756;27;20036;-76
2022/12/16 04:28:37;;;;;;;14.20;7.10;;;;;;;-6.52;83.09;100537.28;10608118;27;20043;-76
